createdAt,value
2023-01-12T02:19:56.855Z,88.03
2023-01-12T02:22:41.525Z,86.80
2023-01-12T02:25:17.683Z,86.71
2023-01-12T02:28:11.868Z,86.95
2023-01-12T02:31:06.999Z,87.12
2023-01-12T02:33:52.561Z,87.21
2023-01-12T02:36:25.543Z,87.24
2023-01-12T02:39:02.020Z,87.22
2023-01-12T02:41:55.376Z,86.96
2023-01-12T02:44:33.278Z,87.07
2023-01-12T02:47:00.962Z,86.85
2023-01-12T02:49:30.567Z,86.71
2023-01-12T02:52:02.870Z,86.42
2023-01-12T02:54:29.869Z,86.28
2023-01-12T02:57:00.122Z,86.35
2023-01-12T02:59:35.331Z,86.34
2023-01-12T03:02:10.263Z,86.28
2023-01-12T03:04:37.214Z,86.10
2023-01-12T03:07:04.159Z,86.16
2023-01-12T03:09:44.057Z,86.11
2023-01-12T03:12:14.326Z,86.11
2023-01-12T03:14:43.525Z,85.94
2023-01-12T03:17:15.001Z,85.93
2023-01-12T03:19:41.925Z,86.21
2023-01-12T03:22:10.817Z,86.05
2023-01-12T03:24:40.400Z,85.98
2023-01-12T03:27:14.464Z,85.86
2023-01-12T03:29:45.476Z,85.97
2023-01-12T03:32:12.360Z,85.52
2023-01-12T03:34:39.270Z,85.51
2023-01-12T03:37:25.259Z,85.59
2023-01-12T03:39:58.878Z,85.61
2023-01-12T03:42:25.803Z,85.65
2023-01-12T03:45:11.186Z,85.68
2023-01-12T03:47:38.125Z,85.85
2023-01-12T03:50:12.184Z,85.72
2023-01-12T03:52:39.803Z,85.86
2023-01-12T03:55:08.123Z,85.87
2023-01-12T03:57:35.334Z,86.09
2023-01-12T04:00:03.383Z,86.16
2023-01-12T04:02:39.975Z,85.88
2023-01-12T04:05:07.397Z,85.92
2023-01-12T04:07:34.290Z,85.96
2023-01-12T04:10:01.220Z,85.88
2023-01-12T04:12:28.181Z,86.08
2023-01-12T04:14:55.111Z,85.97
2023-01-12T04:17:25.455Z,86.09
2023-01-12T04:19:52.491Z,86.24
2023-01-12T04:22:38.677Z,86.29
2023-01-12T04:25:08.629Z,86.32
2023-01-12T04:27:36.360Z,86.44
2023-01-12T04:30:04.238Z,86.43
2023-01-12T04:32:31.383Z,86.52
2023-01-12T04:35:00.472Z,86.63
2023-01-12T04:37:27.422Z,86.80
2023-01-12T04:39:54.912Z,86.93
2023-01-12T04:42:40.883Z,86.99
2023-01-12T04:45:08.531Z,87.06
2023-01-12T04:47:35.577Z,87.33
2023-01-12T04:50:02.532Z,87.26
2023-01-12T04:52:29.571Z,87.35
2023-01-12T04:54:57.013Z,87.46
2023-01-12T04:57:24.501Z,87.59
2023-01-12T04:59:51.435Z,87.74
2023-01-12T05:02:18.380Z,87.71
2023-01-12T05:04:47.168Z,87.82
2023-01-12T05:07:14.521Z,87.96
2023-01-12T05:10:00.238Z,87.99
2023-01-12T05:12:27.677Z,88.24
2023-01-12T05:14:54.732Z,88.65
2023-01-12T05:17:21.757Z,88.75
2023-01-12T05:19:49.938Z,88.89
2023-01-12T05:22:16.983Z,89.12
2023-01-12T05:24:43.924Z,89.22
2023-01-12T05:27:10.872Z,89.45
2023-01-12T05:29:37.822Z,89.63
2023-01-12T05:32:05.070Z,89.82
2023-01-12T05:34:32.121Z,89.92
2023-01-12T05:36:59.167Z,90.41
2023-01-12T05:39:26.215Z,90.30
2023-01-12T05:42:12.014Z,90.37
2023-01-12T05:44:38.949Z,90.40
2023-01-12T05:47:06.205Z,90.65
2023-01-12T05:49:33.254Z,90.89
2023-01-12T05:52:00.193Z,91.07
2023-01-12T05:54:27.144Z,91.25
2023-01-12T05:56:55.625Z,91.35
2023-01-12T05:59:22.666Z,91.55
2023-01-12T06:01:49.631Z,91.57
2023-01-12T06:04:16.624Z,91.79
2023-01-12T06:06:43.596Z,91.99
2023-01-12T06:09:10.556Z,92.10
2023-01-12T06:11:56.445Z,92.42
2023-01-12T06:14:23.708Z,92.36
2023-01-12T06:16:50.748Z,92.74
2023-01-12T06:19:17.705Z,92.70
2023-01-12T06:21:44.885Z,92.63
2023-01-12T06:24:11.999Z,92.93
2023-01-12T06:26:39.041Z,92.87
2023-01-12T06:29:07.408Z,92.97
2023-01-12T06:31:34.512Z,93.08
2023-01-12T06:34:01.521Z,93.27
2023-01-12T06:36:28.469Z,93.32
2023-01-12T06:38:55.513Z,93.33
2023-01-12T06:41:41.326Z,93.38
2023-01-12T06:44:08.346Z,93.58
2023-01-12T06:46:35.431Z,93.69
2023-01-12T06:49:02.438Z,93.55
2023-01-12T06:51:29.489Z,93.78
2023-01-12T06:53:56.535Z,93.63
2023-01-12T06:56:23.649Z,93.73
2023-01-12T06:58:50.633Z,93.75
2023-01-12T07:01:17.689Z,93.97
2023-01-12T07:03:45.036Z,93.93
2023-01-12T07:06:12.136Z,93.95
2023-01-12T07:08:39.131Z,94.07
2023-01-12T07:11:08.237Z,93.99
2023-01-12T07:13:35.381Z,94.04
2023-01-12T07:16:02.478Z,94.23
2023-01-12T07:18:29.992Z,94.38
2023-01-12T07:20:57.135Z,94.34
2023-01-12T07:23:24.195Z,94.25
2023-01-12T07:25:51.379Z,94.23
2023-01-12T07:28:18.395Z,94.20
2023-01-12T07:30:45.362Z,94.18
2023-01-12T07:33:13.825Z,94.30
2023-01-12T07:35:41.887Z,94.23
2023-01-12T07:38:09.237Z,94.56
2023-01-12T07:40:36.323Z,94.38
2023-01-12T07:43:07.759Z,94.31
2023-01-12T07:45:36.224Z,94.21
2023-01-12T07:48:03.167Z,94.39
2023-01-12T07:50:30.551Z,94.54
2023-01-12T07:53:01.406Z,94.53
2023-01-12T07:55:29.241Z,94.50
2023-01-12T12:08:05.608Z,98.05
2023-01-12T12:10:44.237Z,96.22
2023-01-12T12:13:21.303Z,96.35
2023-01-12T12:15:55.321Z,96.10
2023-01-12T12:18:25.435Z,96.57
2023-01-12T12:21:04.776Z,96.46
2023-01-12T12:23:41.728Z,96.04
2023-01-12T12:26:38.806Z,96.19
2023-01-12T12:29:41.168Z,96.16
2023-01-12T12:32:14.604Z,95.81
2023-01-12T12:35:14.910Z,95.77
2023-01-12T12:38:07.043Z,95.57
2023-01-12T12:41:02.555Z,95.50
2023-01-12T12:43:49.835Z,95.22
2023-01-12T12:46:34.559Z,95.14
2023-01-12T12:49:07.502Z,95.07
2023-01-12T12:51:35.080Z,95.18
2023-01-12T12:54:04.151Z,95.42
2023-01-12T12:56:32.542Z,95.19
2023-01-12T12:59:01.778Z,95.06
2023-01-12T13:01:28.973Z,94.63
2023-01-12T13:03:56.313Z,94.59
2023-01-12T13:06:24.680Z,94.51
2023-01-12T13:08:53.908Z,93.95
2023-01-12T13:11:21.132Z,93.57
2023-01-12T13:14:02.174Z,93.81
2023-01-12T13:16:32.004Z,93.94
2023-01-12T13:18:59.052Z,94.00
2023-01-12T13:21:43.712Z,94.22
2023-01-12T13:24:10.805Z,94.16
2023-01-12T13:26:39.620Z,94.17
2023-01-12T13:29:29.109Z,94.22
2023-01-12T13:32:00.236Z,93.93
2023-01-12T13:34:42.530Z,93.78
2023-01-12T13:37:30.073Z,93.81
2023-01-12T13:40:11.060Z,93.79
2023-01-12T13:42:57.026Z,93.69
2023-01-12T13:45:24.106Z,93.74
2023-01-12T13:47:51.663Z,93.38
2023-01-12T13:50:21.375Z,93.52
2023-01-12T13:52:58.915Z,93.63
2023-01-12T13:55:30.931Z,93.78
2023-01-12T13:58:07.471Z,93.76
2023-01-12T14:00:35.343Z,93.81
2023-01-12T14:03:03.485Z,93.77
2023-01-12T14:05:51.858Z,93.51
2023-01-12T14:08:53.653Z,93.57
2023-01-12T14:11:39.198Z,93.30
2023-01-12T14:14:38.721Z,93.47
2023-01-12T14:17:36.630Z,93.57
2023-01-12T14:20:12.076Z,93.68
2023-01-12T14:22:39.441Z,93.67
2023-01-12T14:25:14.742Z,93.56
2023-01-12T14:27:49.728Z,93.71
2023-01-12T14:30:17.038Z,93.48
2023-01-12T14:32:48.071Z,93.44
2023-01-12T14:35:25.470Z,93.69
2023-01-12T14:37:59.699Z,93.55
2023-01-12T14:40:31.552Z,93.78
2023-01-12T14:43:18.035Z,93.82
2023-01-12T14:46:15.610Z,93.53
2023-01-12T14:48:44.315Z,93.46
2023-01-12T14:51:20.053Z,93.50
2023-01-12T14:53:48.033Z,93.78
2023-01-12T14:56:23.535Z,93.60
2023-01-12T14:58:50.750Z,93.77
2023-01-12T15:01:36.050Z,93.77
2023-01-12T15:04:05.193Z,93.92
2023-01-12T15:06:36.886Z,93.73
2023-01-12T15:09:04.030Z,93.78
2023-01-12T15:11:35.633Z,93.81
2023-01-12T15:14:04.605Z,93.75
2023-01-12T15:16:50.875Z,93.46
2023-01-12T15:19:36.873Z,93.60
2023-01-12T15:22:22.650Z,93.40
2023-01-12T15:25:08.443Z,93.45
2023-01-12T15:27:35.592Z,93.58
2023-01-12T15:30:02.651Z,93.81
2023-01-12T15:32:49.585Z,93.38
2023-01-12T15:35:26.847Z,93.49
2023-01-12T15:37:55.693Z,93.21
2023-01-12T15:40:23.194Z,93.24
2023-01-12T15:42:53.047Z,93.48
2023-01-12T15:45:28.885Z,93.32
2023-01-12T15:47:56.732Z,93.23
2023-01-12T15:50:24.509Z,93.33
2023-01-12T15:52:51.537Z,93.29
2023-01-12T20:17:00.384Z,98.54
2023-01-12T20:19:30.820Z,97.27
2023-01-12T20:21:58.274Z,97.13
2023-01-12T20:24:25.735Z,97.38
2023-01-12T20:26:53.762Z,97.38
2023-01-12T20:29:24.074Z,97.37
2023-01-12T20:31:54.982Z,98.04
2023-01-12T20:34:22.427Z,97.86
2023-01-12T20:36:49.791Z,97.69
2023-01-12T20:39:32.800Z,97.31
2023-01-12T20:42:02.508Z,97.30
2023-01-12T20:44:29.864Z,97.00
2023-01-12T20:47:00.454Z,97.14
2023-01-12T20:49:36.900Z,96.85
2023-01-12T20:52:07.087Z,97.00
2023-01-12T20:54:37.619Z,96.77
2023-01-12T20:57:08.048Z,96.61
2023-01-12T20:59:35.706Z,96.56
2023-01-12T21:02:08.670Z,96.38
2023-01-12T21:04:36.253Z,96.32
2023-01-12T21:07:04.011Z,96.38
2023-01-12T21:09:33.430Z,96.17
2023-01-12T21:12:00.776Z,95.94
2023-01-12T21:14:40.316Z,95.85
2023-01-12T21:17:07.567Z,95.57
2023-01-12T21:19:35.026Z,95.57
2023-01-12T21:22:02.288Z,95.36
2023-01-12T21:24:29.332Z,95.45
2023-01-12T21:26:59.775Z,95.05
2023-01-12T21:29:27.314Z,94.69
2023-01-12T21:31:54.753Z,94.60
2023-01-12T21:34:22.338Z,94.45
2023-01-12T21:36:52.346Z,94.59
2023-01-12T21:39:19.811Z,94.59
2023-01-12T21:42:08.294Z,94.42
2023-01-12T21:44:38.513Z,94.36
2023-01-12T21:47:10.269Z,94.53
2023-01-12T21:50:02.255Z,94.56
2023-01-12T21:52:33.335Z,94.19
2023-01-12T21:55:03.193Z,94.42
2023-01-12T21:57:34.413Z,94.46
2023-01-12T22:00:05.226Z,94.40
2023-01-12T22:02:38.917Z,94.54
2023-01-12T22:05:11.079Z,94.43
2023-01-12T22:07:40.897Z,94.22
2023-01-12T22:10:20.276Z,94.02
2023-01-12T22:12:55.634Z,93.80
2023-01-12T22:15:25.493Z,93.84
2023-01-12T22:18:02.982Z,93.96
2023-01-12T22:20:33.846Z,93.81
2023-01-12T22:23:12.648Z,93.82
2023-01-12T22:25:57.105Z,93.81
2023-01-12T22:28:24.619Z,93.85
2023-01-12T22:30:51.916Z,93.87
2023-01-12T22:33:32.580Z,93.97
2023-01-12T22:36:02.337Z,94.01
2023-01-12T22:38:49.924Z,93.93
2023-01-12T22:41:22.395Z,93.79
2023-01-12T22:43:52.930Z,93.36
2023-01-12T22:46:25.604Z,93.51
2023-01-12T22:48:54.262Z,93.54
2023-01-12T22:51:25.245Z,93.54
2023-01-12T22:53:53.209Z,93.52
2023-01-12T22:56:23.229Z,93.48
2023-01-12T22:58:53.054Z,93.47
2023-01-12T23:01:20.848Z,93.55
2023-01-12T23:03:54.613Z,93.58
2023-01-12T23:06:30.989Z,93.31
2023-01-12T23:08:58.358Z,93.31
2023-01-12T23:11:26.517Z,93.14
2023-01-12T23:13:57.250Z,93.30
2023-01-12T23:16:29.408Z,93.13
2023-01-12T23:19:05.774Z,93.05
2023-01-12T23:21:35.892Z,93.07
2023-01-12T23:24:06.333Z,92.96
2023-01-12T23:26:33.604Z,93.04
2023-01-12T23:29:12.299Z,93.06
2023-01-12T23:31:42.761Z,93.08
2023-01-12T23:34:10.181Z,93.16
2023-01-12T23:36:45.115Z,93.21
2023-01-12T23:39:17.795Z,93.06
2023-01-12T23:41:48.221Z,93.25
2023-01-12T23:44:19.468Z,92.96
2023-01-12T23:46:53.240Z,92.99
2023-01-12T23:49:23.906Z,92.86
2023-01-12T23:51:53.825Z,92.86
2023-01-12T23:54:23.742Z,93.05
2023-01-12T23:56:56.936Z,93.04
2023-01-12T23:59:24.596Z,92.97
